1 de outubro de 2022

Hora Código Clima Temp. Visibilidade Tecto Vento METAR/SPECI
06:26
M
12 °C 10 km+ 1.600 ft 220° 220° 14 kt METAR EHLW 010426Z AUTO 22014KT 170V230 9999 FEW006 SCT010 OVC016 12/11 Q0996 GRN
06:25
M
12 °C 10 km+ 1.500 ft 210° 210° 15 kt METAR EHLW 010425Z AUTO 21015KT 170V230 9999 FEW008 BKN015 OVC019 12/11 Q0996 REDZ WHT
06:15
M
12 °C 10 km+ 1.500 ft 210° 210° 16 kt METAR EHLW 010415Z AUTO 21016KT 170V240 9999 FEW006 OVC015 12/11 Q0996 WHT
06:11
I
12 °C 10 km+ 900 ft 210° 210° 14 kt METAR EHLW 010411Z AUTO 21014KT 170V240 9999 -DZ FEW006 SCT007 BKN009 12/11 Q0996 GRN
06:01
I
12 °C 10 km+ 900 ft 210° 210° 17 kt METAR EHLW 010401Z AUTO 21017KT 170V230 9999 DZ FEW006 SCT007 BKN009 12/11 Q0996 GRN
05:55
M
12 °C 10 km+ 1.500 ft 210° 210° 18 kt METAR EHLW 010355Z AUTO 21018KT 160V240 9999 -RA FEW007 SCT010 BKN015CB 12/11 Q0996 RERA REDZ GRN
05:41
I
12 °C 10 km+ 700 ft 200° 200° 17 kt METAR EHLW 010341Z AUTO 20017KT 160V230 9999 -RA SCT006 BKN007 BKN008 FEW015CB 12/11 Q0996 YLO
05:32
I
12 °C 10 km+ 700 ft 200° 200° 18 - 28 kt METAR EHLW 010332Z AUTO 20018G28KT 150V230 9999 -SHRA SCT006 BKN007 BKN009 FEW015CB 12/11 Q0996 YLO
05:29
I
12 °C 5 km 900 ft 200° 200° 17 - 27 kt METAR EHLW 010329Z AUTO 20017G27KT 130V240 5000 RADZ FEW007 BKN009 BKN010 FEW015CB 12/10 Q0996 GRN
05:25
I
12 °C 10 km+ 900 ft 200° 200° 19 kt METAR EHLW 010325Z AUTO 20019KT 130V240 9999 DZ FEW008 BKN009 BKN010 FEW015CB 12/10 Q0996 GRN
05:16
I
12 °C 10 km+ 900 ft 190° 190° 18 kt METAR EHLW 010316Z AUTO 19018KT 150V220 9999 DZRA FEW008 BKN009 BKN010 12/10 Q0996 GRN
05:12
I
12 °C 10 km+ 900 ft 200° 200° 17 - 27 kt METAR EHLW 010312Z AUTO 20017G27KT 140V220 9999 -RA FEW008 BKN009 OVC011 12/10 Q0996 GRN
05:08
M
12 °C 10 km+ 1.000 ft 190° 190° 18 kt METAR EHLW 010308Z AUTO 19018KT 140V220 9999 FEW008 SCT009 OVC010 12/10 Q0996 GRN
04:55
M
12 °C 10 km+ 1.100 ft 190° 190° 18 kt METAR EHLW 010255Z AUTO 19018KT 140V240 9999 SCT008 BKN011 OVC013 12/10 Q0996 GRN
04:34
M
11 °C 10 km+ 1.000 ft 190° 190° 18 kt METAR EHLW 010234Z AUTO 19018KT 140V220 9999 -DZ FEW007 SCT008 OVC010 11/10 Q0996 GRN
04:29
M
11 °C 10 km+ 1.000 ft 190° 190° 18 kt METAR EHLW 010229Z AUTO 19018KT 140V220 9999 -DZRA FEW007 SCT008 OVC010 11/10 Q0996 GRN
04:25
M
11 °C 10 km+ 1.000 ft 180° 180° 18 kt METAR EHLW 010225Z AUTO 18018KT 140V230 9999 FEW007 SCT008 OVC010 11/10 Q0997 GRN
04:13
M
11 °C 10 km+ 1.000 ft 180° 180° 17 kt METAR EHLW 010213Z AUTO 18017KT 140V220 9999 FEW007 BKN010 BKN012 FEW015CB 11/10 Q0997 GRN
04:03
I
11 °C 10 km+ 900 ft 180° 180° 17 kt METAR EHLW 010203Z AUTO 18017KT 140V220 9999 -RA FEW006 SCT007 BKN009 SCT015CB 11/10 Q0997 GRN
03:55
I
11 °C 7 km 700 ft 180° 180° 16 kt METAR EHLW 010155Z AUTO 18016KT 130V220 7000 -SHRA SCT006 BKN007 BKN008 SCT015CB 11/10 Q0997 RERA YLO
03:32
I
11 °C 5 km 800 ft 180° 180° 15 kt METAR EHLW 010132Z AUTO 18015KT 140V210 5000 RA SCT006 BKN008 BKN009 BKN015CB 11/10 Q0998 YLO
03:25
I
11 °C 7 km 800 ft 170° 170° 16 - 27 kt METAR EHLW 010125Z AUTO 17016G27KT 120V220 7000 SHRA SCT007 BKN008 BKN010 BKN015CB 11/10 Q0998 GRN
03:16
M
11 °C 6 km 1.000 ft 170° 170° 14 - 25 kt METAR EHLW 010116Z AUTO 17014G25KT 120V220 6000 RA SCT007 SCT008 BKN010 BKN015CB 11/10 Q0998 GRN
03:12
M
11 °C 5 km 1.000 ft 170° 170° 14 kt METAR EHLW 010112Z AUTO 17014KT 120V210 5000 RA FEW007 SCT009 BKN010 BKN015CB 11/10 Q0998 GRN
03:04
I
11 °C 4 km 1.000 ft 170° 170° 15 kt METAR EHLW 010104Z AUTO 17015KT 130V220 4000 +RA FEW007 SCT009 BKN010 BKN015CB 11/10 Q0998 GRN
03:00
I
11 °C 4,4 km 1.000 ft 170° 170° 15 kt METAR EHLW 010100Z AUTO 17015KT 140V220 4400 SHRA FEW007 SCT009 BKN010 BKN015CB 11/10 Q0998 GRN
02:55
M
11 °C 6 km 1.500 ft 170° 170° 17 kt METAR EHLW 010055Z AUTO 17017KT 130V220 6000 -RA FEW008 SCT011 BKN015CB 11/10 Q0998 RERA GRN
02:41
M
11 °C 8 km 1.500 ft 170° 170° 16 kt METAR EHLW 010041Z AUTO 17016KT 130V200 8000 -RA FEW009 SCT012 BKN015CB 11/10 Q0999 GRN
02:34
M
11 °C 7 km 1.500 ft 170° 170° 17 kt METAR EHLW 010034Z AUTO 17017KT 130V210 7000 SHRA FEW011 SCT014 BKN015CB 11/10 Q0999 GRN
02:25
M
11 °C 7 km 1.500 ft 180° 180° 16 kt METAR EHLW 010025Z AUTO 18016KT 120V210 7000 RA FEW009 BKN015CB BKN016 BKN035 11/10 Q0999 WHT
02:07
M
11 °C 8 km 1.500 ft 170° 170° 16 - 28 kt METAR EHLW 010007Z AUTO 17016G28KT 130V210 8000 SHRA FEW008 SCT011 BKN015CB 11/10 Q0999 GRN
01:55
M
11 °C 9 km 1.500 ft 180° 180° 16 kt METAR EHLW 302355Z AUTO 18016KT 130V210 9000 -SHRA BKN015CB SCT016 BKN042 11/10 Q1000 WHT
01:25
M
11 °C 10 km+ 1.500 ft 180° 180° 14 kt METAR EHLW 302325Z AUTO 18014KT 140V210 9999 -SHRA BKN015CB SCT052 OVC066 11/10 Q1000 WHT
01:02
M
12 °C 9 km 1.500 ft 180° 180° 16 kt METAR EHLW 302302Z AUTO 18016KT 140V220 9000 -SHRA BKN015CB SCT053 OVC063 12/10 Q1001 WHT
00:55
M
12 °C 9 km 1.500 ft 180° 180° 15 kt METAR EHLW 302255Z AUTO 18015KT 140V220 9000 -RA BKN015CB OVC063 12/10 Q1001 WHT
00:44
M
12 °C 10 km+ 1.500 ft 180° 180° 16 kt METAR EHLW 302244Z AUTO 18016KT 140V220 9999 -RA BKN015CB OVC061 12/10 Q1001 WHT
00:38
V
12 °C 9 km 5.900 ft 190° 190° 14 kt METAR EHLW 302238Z AUTO 19014KT 150V220 9000 RA SCT015CB OVC059 12/10 Q1001 WHT
00:34
V
12 °C 9 km 5.900 ft 190° 190° 14 kt METAR EHLW 302234Z AUTO 19014KT 150V230 9000 -RA SCT015CB SCT052 OVC059 12/10 Q1001 WHT
00:25
V
12 °C 10 km+ 5.900 ft 190° 190° 13 kt METAR EHLW 302225Z AUTO 19013KT 140V220 9999 -RA FEW015CB SCT053 OVC059 12/10 Q1002 BLU

30 de setembro de 2022

Hora Código Clima Temp. Visibilidade Tecto Vento METAR/SPECI
23:55
V
12 °C 10 km+ 5.800 ft 190° 190° 15 - 25 kt METAR EHLW 302155Z AUTO 19015G25KT 130V220 9999 -RA FEW015CB OVC058 12/09 Q1002 RERA REDZ BLU
23:42
V
13 °C 10 km+ 6.000 ft 190° 190° 14 kt METAR EHLW 302142Z AUTO 19014KT 140V230 9999 -SHRA FEW015CB OVC060 13/09 Q1002 BLU
23:35
V
13 °C 10 km+ 6.000 ft 190° 190° 15 kt METAR EHLW 302135Z AUTO 19015KT 140V220 9999 -RA FEW016CB SCT038 BKN060 OVC066 13/09 Q1002 BLU
23:29
V
13 °C 10 km+ 4.400 ft 190° 190° 15 kt METAR EHLW 302129Z AUTO 19015KT 140V230 9999 DZRA FEW018CB BKN044 BKN061 13/09 Q1002 BLU
23:25
V
13 °C 10 km+ 4.000 ft 190° 190° 15 kt METAR EHLW 302125Z AUTO 19015KT 140V230 9999 DZ BKN040 OVC045 13/08 Q1002 BLU
23:16
V
13 °C 10 km+ 4.000 ft 180° 180° 14 kt METAR EHLW 302116Z AUTO 18014KT 150V220 9999 DZRA OVC040 13/08 Q1002 BLU
22:55
V
13 °C 10 km+ 4.400 ft 180° 180° 14 kt METAR EHLW 302055Z AUTO 18014KT 140V220 9999 OVC044 13/08 Q1002 BLU
22:43
V
13 °C 10 km+ 5.300 ft 180° 180° 14 kt METAR EHLW 302043Z AUTO 18014KT 140V220 9999 DZRA SCT044 BKN053 OVC059 13/08 Q1002 BLU
22:25
V
13 °C 10 km+ 4.500 ft 180° 180° 13 kt METAR EHLW 302025Z AUTO 18013KT 140V210 9999 BKN045 BKN049 BKN055 13/08 Q1002 BLU
21:55
V
13 °C 10 km+ 5.100 ft 180° 180° 13 kt METAR EHLW 301955Z AUTO 18013KT 130V210 9999 BKN051 BKN057 OVC068 13/09 Q1003 BLU
21:25
V
13 °C 10 km+ 6.800 ft 180° 180° 14 kt METAR EHLW 301925Z AUTO 18014KT 130V210 9999 FEW057 BKN068 OVC074 13/09 Q1003 BLU
20:55
V
13 °C 10 km+ 5.900 ft 170° 170° 11 kt METAR EHLW 301855Z AUTO 17011KT 130V210 9999 SCT050 BKN059 OVC077 13/08 Q1004 BLU
20:25
V
13 °C 10 km+ 6.700 ft 180° 180° 11 kt METAR EHLW 301825Z AUTO 18011KT 150V220 9999 FEW062 BKN067 OVC190 13/09 Q1004 BLU
19:55
V
13 °C 10 km+ 21.000 ft 190° 190° 10 kt METAR EHLW 301755Z AUTO 19010KT 140V230 9999 OVC210 13/09 Q1005 BLU
19:25
V
13 °C 10 km+ 23.000 ft 190° 190° 9 kt METAR EHLW 301725Z AUTO 19009KT 150V230 9999 OVC230 13/09 Q1005 BLU
18:55
V
14 °C 10 km+ 5.000 ft 200° 200° 10 kt METAR EHLW 301655Z AUTO 20010KT 160V230 9999 SCT028 SCT037 BKN050 14/10 Q1005 BLU
18:25
V
14 °C 10 km+ 7.500 ft 200° 200° 11 kt METAR EHLW 301625Z AUTO 20011KT 160V230 9999 SCT030 BKN075 OVC240 14/10 Q1005 BLU
17:55
V
15 °C 10 km+ 6.700 ft 200° 200° 12 kt METAR EHLW 301555Z AUTO 20012KT 160V230 9999 FEW035 SCT047 BKN067 15/10 Q1005 BLU
17:25
V
16 °C 10 km+ 25.000 ft 200° 200° 13 kt METAR EHLW 301525Z AUTO 20013KT 150V240 9999 FEW070 OVC250 16/10 Q1005 BLU
16:55
V
15 °C 10 km+ 26.000 ft 200° 200° 13 kt METAR EHLW 301455Z AUTO 20013KT 150V230 9999 FEW032 BKN260 15/09 Q1006 BLU
16:25
V
15 °C 10 km+ 6.100 ft 200° 200° 13 kt METAR EHLW 301425Z AUTO 20013KT 160V230 9999 SCT056 OVC061 15/09 Q1006 BLU
15:55
V
16 °C 10 km+ 6.200 ft 200° 200° 14 kt METAR EHLW 301355Z AUTO 20014KT 160V240 9999 FEW038 SCT043 BKN062 16/09 Q1006 BLU
15:35
V
16 °C 10 km+ 30.000 ft 200° 200° 15 kt METAR EHLW 301335Z AUTO 20015KT 140V230 9999 OVC300 16/10 Q1006 BLU
15:25
V
16 °C 10 km+ 32.000 ft 200° 200° 13 kt METAR EHLW 301325Z AUTO 20013KT 160V240 9999 OVC320 16/10 Q1006 BLU NOSIG
15:01
V
16 °C 10 km+ - 200° 200° 14 kt METAR EHLW 301301Z AUTO 20014KT 160V250 9999 FEW022 16/10 Q1007 BLU NOSIG
14:55
V
16 °C 10 km+ - 210° 210° 13 kt METAR EHLW 301255Z AUTO 21013KT 150V240 9999 FEW022 16/10 Q1007 BLU NOSIG
14:25
V
16 °C 10 km+ - 200° 200° 12 kt METAR EHLW 301225Z AUTO 20012KT 150V240 9999 FEW022 16/11 Q1007 BLU NOSIG
13:55
V
16 °C 10 km+ - 200° 200° 12 kt METAR EHLW 301155Z AUTO 20012KT 150V240 9999 FEW023 16/10 Q1007 BLU NOSIG
13:25
V
16 °C 10 km+ - 200° 200° 12 kt METAR EHLW 301125Z AUTO 20012KT 160V240 9999 FEW023 16/10 Q1008 BLU NOSIG
13:14
V
15 °C 10 km+ 3.000 ft 200° 200° 10 kt METAR EHLW 301114Z AUTO 20010KT 160V250 9999 FEW023 SCT027 BKN030 15/09 Q1008 BLU NOSIG
12:56
M
15 °C 10 km+ 2.700 ft 210° 210° 10 kt METAR EHLW 301056Z AUTO 21010KT 9999 SCT021 BKN027 BKN036 15/10 Q1008 WHT NOSIG
12:55
V
15 °C 10 km+ - 210° 210° 9 kt METAR EHLW 301055Z AUTO 21009KT 9999 FEW021 SCT025 15/10 Q1008 BLU NOSIG
12:25
V
15 °C 10 km+ - 200° 200° 9 kt METAR EHLW 301025Z AUTO 20009KT 140V250 9999 FEW023 15/09 Q1008 BLU NOSIG
12:03
V
15 °C 10 km+ - 200° 200° 9 kt METAR EHLW 301003Z AUTO 20009KT 140V230 9999 FEW020 15/10 Q1008 BLU NOSIG
11:55
V
15 °C 10 km+ - 200° 200° 9 kt METAR EHLW 300955Z AUTO 20009KT 170V230 9999 SCT020 15/10 Q1008 WHT NOSIG
11:25
V
14 °C 10 km+ - 190° 190° 8 kt METAR EHLW 300925Z AUTO 19008KT 150V230 9999 NCD 14/10 Q1008 BLU NOSIG
10:55
V
13 °C 10 km+ - 200° 200° 7 kt METAR EHLW 300855Z AUTO 20007KT 170V230 9999 NCD 13/10 Q1008 BLU NOSIG
10:25
V
13 °C 10 km+ - 200° 200° 7 kt METAR EHLW 300825Z AUTO 20007KT 160V230 9999 NCD 13/11 Q1008 BLU NOSIG
09:55
V
11 °C 10 km+ - 180° 180° 5 kt METAR EHLW 300755Z AUTO 18005KT 150V220 9999 NCD 11/11 Q1008 BLU NOSIG
09:30
V
10 °C 10 km+ - 180° 180° 4 kt METAR EHLW 300730Z AUTO 18004KT 9999 NCD 10/09 Q1008 BLU BECMG 6000 NSW
09:26
M
10 °C 6 km - 180° 180° 4 kt METAR EHLW 300726Z AUTO 18004KT 6000 BR NCD 10/09 Q1008 WHT BECMG 6000 NSW
09:16
I
9 °C 1,6 km - 190° 190° 5 kt METAR EHLW 300716Z AUTO 19005KT 170V250 1600 R23/P3000N +DZ NCD 09/09 Q1008 YLO BECMG 6000 NSW
09:13
L
8 °C 1,1 km - 190° 190° 4 kt METAR EHLW 300713Z AUTO 19004KT 170V240 1100 R23/P3000N -RADZ NCD 08/08 Q1008 AMB BECMG 6000 NSW
08:58
L
8 °C 650 m - 180° 180° 4 kt METAR EHLW 300658Z AUTO 18004KT 0650 R23/P3000N -UP NCD 08/08 Q1008 RED BECMG 6000 NSW
08:55
L
7 °C 500 m - 190° 190° 4 kt METAR EHLW 300655Z AUTO 19004KT 0500 R23/P3000N -UP NCD 07/07 Q1008 RED NOSIG
08:44
L
7 °C 250 m - 200° 200° 3 kt METAR EHLW 300644Z AUTO 20003KT 0250 R23/P3000U -UP NCD 07/07 Q1008 RED NOSIG
08:34
L
6 °C 200 m - 190° 190° 3 kt METAR EHLW 300634Z AUTO 19003KT 0200 R23/2100D -SHUP NCD 06/06 Q1008 RED NOSIG
08:29
L
6 °C 250 m - 190° 190° 3 kt METAR EHLW 300629Z AUTO 19003KT 0250 R23/P3000U -UP NCD 06/06 Q1008 RED NOSIG
08:25
I
6 °C 2,1 km - 180° 180° 3 kt METAR EHLW 300625Z AUTO 18003KT 2100 R23/P3000U -UP NCD 06/06 Q1008 YLO NOSIG
08:05
L
6 °C 450 m - 190° 190° 4 kt METAR EHLW 300605Z AUTO 19004KT 0450 R23/0400N FG SCT000 06/06 Q1008 RED NOSIG
07:55
L
6 °C 100 m - 200° 200° 4 kt METAR EHLW 300555Z AUTO 20004KT 0100 R23/0300N -UP OVC000 06/06 Q1008 RED NOSIG
07:26
L
6 °C 450 m - 200° 200° 2 kt METAR EHLW 300526Z AUTO 20002KT 0450 FG BKN000 06/06 Q1008 RED
07:25
L
6 °C 550 m - 190° 190° 2 kt METAR EHLW 300525Z AUTO 19002KT 0550 FG SCT000 06/06 Q1008 RED
07:15
L
5 °C 900 m - Var Var 2 kt METAR EHLW 300515Z AUTO VRB02KT 0900 FG NCD 05/05 Q1008 AMB
07:11
L
6 °C 700 m - Var Var 2 kt METAR EHLW 300511Z AUTO VRB02KT 0700 FG NCD 06/06 Q1008 RED
06:55
L
6 °C 1,1 km - 200° 200° 2 kt METAR EHLW 300455Z AUTO 20002KT 1100 BR NCD 06/06 Q1007 AMB
06:39
I
6 °C 3,2 km - 170° 170° 3 kt METAR EHLW 300439Z AUTO 17003KT 3200 BR NCD 06/06 Q1007 YLO
06:31
I
6 °C 4,9 km - 190° 190° 5 kt METAR EHLW 300431Z AUTO 19005KT 4900 BR NCD 06/06 Q1007 GRN
06:25
I
7 °C 2,9 km - 190° 190° 5 kt METAR EHLW 300425Z AUTO 19005KT 160V230 2900 BR NCD 07/06 Q1007 YLO
06:17
I
6 °C 2,1 km - 190° 190° 6 kt METAR EHLW 300417Z AUTO 19006KT 150V230 2100 BR NCD 06/06 Q1007 YLO
05:57
L
6 °C 1,2 km - 190° 190° 5 kt METAR EHLW 300357Z AUTO 19005KT 150V230 1200 BR NCD 06/06 Q1007 AMB
05:55
I
6 °C 2,4 km - 190° 190° 4 kt METAR EHLW 300355Z AUTO 19004KT 2400 BR NCD 06/06 Q1007 YLO
05:43
L
6 °C 800 m - 190° 190° 3 kt METAR EHLW 300343Z AUTO 19003KT 150V240 0800 FG NCD 06/06 Q1007 AMB
05:37
L
6 °C 650 m - Var Var 2 kt METAR EHLW 300337Z AUTO VRB02KT 0650 FG NCD 06/06 Q1007 RED
05:32
V
6 °C 8 km - 180° 180° 2 kt METAR EHLW 300332Z AUTO 18002KT 8000 BR NCD 06/06 Q1007 BLU
05:29
L
7 °C 1,4 km - 180° 180° 2 kt METAR EHLW 300329Z AUTO 18002KT 1400 BR NCD 07/07 Q1007 AMB
05:25
L
7 °C 700 m - 170° 170° 2 kt METAR EHLW 300325Z AUTO 17002KT 0700 FG NCD 07/06 Q1007 RED
05:17
L
6 °C 900 m - 160° 160° 2 kt METAR EHLW 300317Z AUTO 16002KT 0900 FG NCD 06/06 Q1007 AMB
05:16
I
6 °C 2,2 km - 160° 160° 2 kt METAR EHLW 300316Z AUTO 16002KT 2200 BR NCD 06/06 Q1007 YLO
05:12
L
6 °C 900 m - 170° 170° 2 kt METAR EHLW 300312Z AUTO 17002KT 0900 FG NCD 06/06 Q1007 AMB
05:04
L
7 °C 1,1 km - 190° 190° 2 kt METAR EHLW 300304Z AUTO 19002KT 1100 BR NCD 07/07 Q1007 AMB
04:55
L
7 °C 1,3 km - 160° 160° 2 kt METAR EHLW 300255Z AUTO 16002KT 1300 BR FEW029 07/07 Q1007 AMB
04:35
M
7 °C 7 km - Var Var 2 kt METAR EHLW 300235Z AUTO VRB02KT 7000 BR FEW037 07/07 Q1007 WHT
04:29
V
7 °C 9 km - Var Var 2 kt METAR EHLW 300229Z AUTO VRB02KT 9000 BR FEW030 SCT039 07/07 Q1007 BLU
04:25
M
8 °C 5 km - Var Var 2 kt METAR EHLW 300225Z AUTO VRB02KT 5000 BR SCT029 SCT034 08/07 Q1007 WHT
04:12
M
7 °C 7 km - 080° 080° 4 kt METAR EHLW 300212Z AUTO 08004KT 360V160 7000 BR NCD 07/07 Q1007 WHT
03:55
L
6 °C 900 m - Var Var 2 kt METAR EHLW 300155Z AUTO VRB02KT 0900 FG NCD 06/06 Q1007 AMB
03:44
I
6 °C 3,1 km - 190° 190° 1 kt METAR EHLW 300144Z AUTO 19001KT 3100 BR NCD 06/06 Q1007 YLO
03:43
L
6 °C 900 m - 200° 200° 1 kt METAR EHLW 300143Z AUTO 20001KT 0900 FG NCD 06/06 Q1007 AMB
03:34
L
6 °C 600 m - 210° 210° 2 kt METAR EHLW 300134Z AUTO 21002KT 0600 FG NCD 06/06 Q1007 RED
03:27
L
6 °C 1,3 km - 210° 210° 2 kt METAR EHLW 300127Z AUTO 21002KT 1300 BR NCD 06/06 Q1007 AMB
03:25
L
7 °C 450 m - Var Var 1 kt METAR EHLW 300125Z AUTO VRB01KT 0450 FG NCD 07/06 Q1007 RED
03:20
L
7 °C 550 m - Var Var 1 kt METAR EHLW 300120Z AUTO VRB01KT 0550 FG NCD 07/07 Q1007 RED
03:06
L
7 °C 1,3 km - 200° 200° 2 kt METAR EHLW 300106Z AUTO 20002KT 1300 BR NCD 07/06 Q1007 AMB
03:05
I
7 °C 2,4 km - 190° 190° 3 kt METAR EHLW 300105Z AUTO 19003KT 2400 BR NCD 07/07 Q1007 YLO
02:59
M
7 °C 7 km - 190° 190° 3 kt METAR EHLW 300059Z AUTO 19003KT 7000 BR NCD 07/06 Q1007 WHT
02:55
V
7 °C 8 km - 180° 180° 3 kt METAR EHLW 300055Z AUTO 18003KT 8000 BR NCD 07/06 Q1007 BLU
02:43
V
7 °C 9 km - 180° 180° 3 kt METAR EHLW 300043Z AUTO 18003KT 9000 BR NCD 07/07 Q1007 BLU
02:29
V
7 °C 9 km - 210° 210° 1 kt METAR EHLW 300029Z AUTO 21001KT 9000 BR NCD 07/07 Q1007 BLU
02:25
I
7 °C 3,2 km - Var Var 2 kt METAR EHLW 300025Z AUTO VRB02KT 3200 BR NCD 07/07 Q1007 YLO RMK CB INFO NOT AVBL
02:13
V
7 °C 8 km - 200° 200° 2 kt METAR EHLW 300013Z AUTO 20002KT 8000 BR NCD 07/07 Q1007 BLU
02:07
M
8 °C 5 km - Var Var 2 kt METAR EHLW 300007Z AUTO VRB02KT 5000 BR FEW064 08/08 Q1007 WHT
01:55
V
8 °C 10 km+ 6.100 ft 220° 220° 2 kt METAR EHLW 292355Z AUTO 22002KT 9999 BKN061 08/07 Q1007 BLU
01:39
V
8 °C 10 km+ 6.000 ft 210° 210° 3 kt METAR EHLW 292339Z AUTO 21003KT 200V270 9999 BKN060 08/08 Q1007 BLU
01:25
V
8 °C 10 km+ 5.800 ft 230° 230° 2 kt METAR EHLW 292325Z AUTO 23002KT 9999 BKN058 BKN064 08/07 Q1007 BLU
01:14
L
8 °C 800 m 6.200 ft Var Var 1 kt METAR EHLW 292314Z AUTO VRB01KT 0800 FG BKN062 08/08 Q1007 AMB
01:00
I
7 °C 3,1 km - Var Var 2 kt METAR EHLW 292300Z AUTO VRB02KT 3100 BR NCD 07/07 Q1007 YLO
00:59
L
7 °C 900 m - 290° 290° 2 kt METAR EHLW 292259Z AUTO 29002KT 0900 FG NCD 07/07 Q1007 AMB
00:55
I
7 °C 3,1 km - 290° 290° 2 kt METAR EHLW 292255Z AUTO 29002KT 3100 BR NCD 07/07 Q1007 YLO
00:42
I
8 °C 3,3 km - Var Var 1 kt METAR EHLW 292242Z AUTO VRB01KT 3300 BR NCD 08/08 Q1007 YLO
00:40
L
8 °C 1,2 km - Var Var 1 kt METAR EHLW 292240Z AUTO VRB01KT 1200 BR NCD 08/08 Q1007 AMB
00:33
V
8 °C 10 km+ - Var Var 2 kt METAR EHLW 292233Z AUTO VRB02KT 9999 NCD 08/08 Q1007 BLU
00:28
I
8 °C 3,9 km - 290° 290° 3 kt METAR EHLW 292228Z AUTO 29003KT 210V310 3900 BR NCD 08/08 Q1007 GRN
00:25
V
8 °C 10 km+ - 290° 290° 3 kt METAR EHLW 292225Z AUTO 29003KT 230V320 9999 NCD 08/08 Q1007 BLU

29 de setembro de 2022

Hora Código Clima Temp. Visibilidade Tecto Vento METAR/SPECI
23:55
V
8 °C 10 km+ - 300° 300° 3 kt METAR EHLW 292155Z AUTO 30003KT 260V330 9999 NCD 08/08 Q1006 BLU
23:25
V
8 °C 10 km+ - 340° 340° 3 kt METAR EHLW 292125Z AUTO 34003KT 290V030 9999 FEW072 08/08 Q1006 BLU
22:55
V
9 °C 10 km+ 8.100 ft 310° 310° 4 kt METAR EHLW 292055Z AUTO 31004KT 9999 BKN081 BKN091 BKN100 09/08 Q1006 BLU
22:25
V
10 °C 10 km+ 6.600 ft 320° 320° 5 kt METAR EHLW 292025Z AUTO 32005KT 9999 FEW015CB SCT060 BKN066 10/09 Q1006 BLU
22:17
V
10 °C 10 km+ 5.600 ft 320° 320° 5 kt METAR EHLW 292017Z AUTO 32005KT 9999 FEW015CB BKN056 OVC065 10/09 Q1006 BLU
22:08
V
10 °C 10 km+ 5.800 ft 300° 300° 3 kt METAR EHLW 292008Z AUTO 30003KT 270V330 9999 -DZRA FEW015CB BKN058 BKN070 10/10 Q1006 BLU
21:55
V
10 °C 10 km+ 6.700 ft 330° 330° 3 kt METAR EHLW 291955Z AUTO 33003KT 9999 -RA FEW015CB SCT059 BKN067 10/10 Q1006 BLU
21:39
V
11 °C 10 km+ 6.900 ft 300° 300° 2 kt METAR EHLW 291939Z AUTO 30002KT 9999 -RA FEW015CB SCT051 BKN069 11/10 Q1006 BLU
21:26
V
11 °C 10 km+ 5.000 ft 330° 330° 3 kt METAR EHLW 291926Z AUTO 33003KT 290V010 9999 RA FEW015CB BKN050 OVC055 11/09 Q1005 BLU
21:25
V
11 °C 8 km 5.000 ft 330° 330° 5 kt METAR EHLW 291925Z AUTO 33005KT 310V010 8000 -RA FEW015CB BKN050 OVC055 11/10 Q1005 RERA REDZ BLU
21:18
V
11 °C 10 km+ 4.900 ft 330° 330° 7 kt METAR EHLW 291918Z AUTO 33007KT 300V360 9999 -SHRA +DZ FEW005 FEW015CB SCT045 BKN049 11/09 Q1005 BLU
21:14
V
11 °C 10 km+ 4.600 ft 330° 330° 7 kt METAR EHLW 291914Z AUTO 33007KT 290V360 9999 -RADZ FEW005 FEW015CB SCT025 OVC046 11/10 Q1005 BLU
21:02
V
10 °C 10 km+ 4.400 ft 320° 320° 4 kt METAR EHLW 291902Z AUTO 32004KT 290V360 9999 FEW015CB SCT023 BKN044 OVC052 10/10 Q1005 WHT
20:55
V
11 °C 10 km+ 4.300 ft Var Var 2 kt METAR EHLW 291855Z AUTO VRB02KT 9999 FEW015CB BKN043 BKN049 OVC055 11/10 Q1005 REDZ BLU
20:35
V
11 °C 10 km+ 5.100 ft Var Var 2 kt METAR EHLW 291835Z AUTO VRB02KT 9999 -RA FEW015CB OVC051 11/10 Q1005 BLU
20:25
V
11 °C 10 km+ 5.200 ft 350° 350° 4 kt METAR EHLW 291825Z AUTO 35004KT 9999 -RA FEW015CB SCT046 BKN052 11/10 Q1005 RERA REDZ BLU
20:18
V
11 °C 8 km 3.600 ft 340° 340° 5 kt METAR EHLW 291818Z AUTO 34005KT 8000 SHRA FEW015CB SCT032 BKN036 OVC043 11/10 Q1005 BLU
20:12
M
11 °C 7 km 3.100 ft 340° 340° 5 kt METAR EHLW 291812Z AUTO 34005KT 300V360 7000 +DZRA FEW015CB BKN031 OVC036 11/09 Q1005 WHT
19:55
V
11 °C 10 km+ 5.700 ft 320° 320° 3 kt METAR EHLW 291755Z AUTO 32003KT 260V360 9999 FEW015CB BKN057 OVC063 11/09 Q1005 BLU
19:25
V
12 °C 10 km+ 5.200 ft 100° 100° 2 kt METAR EHLW 291725Z AUTO 10002KT 9999 FEW015CB BKN052 OVC060 12/09 Q1004 BLU
18:55
V
12 °C 10 km+ 6.000 ft Var Var 2 kt METAR EHLW 291655Z AUTO VRB02KT 9999 FEW015CB OVC060 12/09 Q1004 BLU
18:25
V
13 °C 10 km+ 6.700 ft 310° 310° 5 kt METAR EHLW 291625Z AUTO 31005KT 280V350 9999 OVC067 13/09 Q1004 BLU
17:55
V
13 °C 10 km+ 3.000 ft 320° 320° 11 kt METAR EHLW 291555Z AUTO 32011KT 270V350 9999 FEW027 BKN030 BKN038 13/09 Q1003 BLU
17:25
V
15 °C 10 km+ 7.600 ft 320° 320° 5 kt METAR EHLW 291525Z AUTO 32005KT 280V030 9999 SCT028 OVC076 15/08 Q1003 BLU
16:55
V
14 °C 10 km+ 10.000 ft 290° 290° 6 kt METAR EHLW 291455Z AUTO 29006KT 260V320 9999 OVC100 14/08 Q1003 BLU
16:25
V
15 °C 10 km+ 10.000 ft 310° 310° 6 kt METAR EHLW 291425Z AUTO 31006KT 270V330 9999 OVC100 15/08 Q1003 BLU
16:00
V
15 °C 10 km+ 11.000 ft 310° 310° 9 kt METAR EHLW 291400Z AUTO 31009KT 270V360 9999 BKN110 15/07 Q1003 BLU
15:55
V
15 °C 10 km+ - 310° 310° 9 kt METAR EHLW 291355Z AUTO 31009KT 270V350 9999 FEW110 15/08 Q1003 BLU NOSIG
15:25
V
15 °C 10 km+ - 310° 310° 6 kt METAR EHLW 291325Z AUTO 31006KT 250V010 9999 SCT110 15/07 Q1002 BLU NOSIG
14:55
V
15 °C 10 km+ 3.000 ft 310° 310° 7 kt METAR EHLW 291255Z AUTO 31007KT 270V360 9999 BKN030 OVC120 15/09 Q1002 BLU NOSIG
14:25
V
15 °C 10 km+ 5.800 ft 270° 270° 5 kt METAR EHLW 291225Z AUTO 27005KT 230V330 9999 OVC058 15/08 Q1002 BLU NOSIG
13:55
V
15 °C 10 km+ 12.000 ft 260° 260° 4 kt METAR EHLW 291155Z AUTO 26004KT 220V340 9999 OVC120 15/08 Q1002 BLU NOSIG
13:25
M
14 °C 10 km+ 2.600 ft 270° 270° 7 kt METAR EHLW 291125Z AUTO 27007KT 250V320 9999 BKN026 OVC030 14/08 Q1002 BLU NOSIG
12:55
V
14 °C 10 km+ 3.000 ft 280° 280° 3 kt METAR EHLW 291055Z AUTO 28003KT 220V290 9999 FEW022 SCT026 BKN030 14/07 Q1002 BLU NOSIG
12:29
V
14 °C 10 km+ 28.000 ft 240° 240° 4 kt METAR EHLW 291029Z AUTO 24004KT 180V310 9999 SCT021 BKN280 14/09 Q1002 WHT NOSIG
12:25
V
14 °C 10 km+ 27.000 ft 220° 220° 4 kt METAR EHLW 291025Z AUTO 22004KT 190V310 9999 BKN270 14/09 Q1002 BLU NOSIG
12:19
V
14 °C 10 km+ 26.000 ft 240° 240° 4 kt METAR EHLW 291019Z AUTO 24004KT 200V310 9999 FEW020 OVC260 14/09 Q1002 BLU NOSIG
12:13
V
14 °C 10 km+ 26.000 ft 250° 250° 5 kt METAR EHLW 291013Z AUTO 25005KT 200V300 9999 SCT018 OVC260 14/09 Q1002 WHT TEMPO SCT020
12:07
V
14 °C 10 km+ 26.000 ft 250° 250° 4 kt METAR EHLW 291007Z AUTO 25004KT 180V300 9999 FEW018 OVC260 14/10 Q1002 BLU TEMPO SCT020
11:55
V
14 °C 10 km+ 27.000 ft 220° 220° 4 kt METAR EHLW 290955Z AUTO 22004KT 190V260 9999 OVC270 14/09 Q1002 BLU TEMPO SCT012 BECMG SCT016
11:40
V
13 °C 10 km+ 27.000 ft 220° 220° 4 kt METAR EHLW 290940Z AUTO 22004KT 170V260 9999 OVC270 13/10 Q1001 BLU TEMPO SCT012 BECMG SCT016
11:25
V
13 °C 10 km+ - 220° 220° 4 kt METAR EHLW 290925Z AUTO 22004KT 180V250 9999 NCD 13/10 Q1001 BLU BECMG SCT012
10:55
V
11 °C 10 km+ 20.000 ft 210° 210° 3 kt METAR EHLW 290855Z AUTO 21003KT 170V250 9999 OVC200 11/11 Q1001 BLU BECMG SCT012
10:44
V
11 °C 10 km+ - 200° 200° 3 kt METAR EHLW 290844Z AUTO 20003KT 180V250 9999 SCT200 11/10 Q1001 BLU BECMG SCT012
10:30
V
10 °C 9 km - 200° 200° 3 kt METAR EHLW 290830Z AUTO 20003KT 180V250 9000 BR FEW230 10/10 Q1001 BLU BECMG SCT012
10:29
M
10 °C 7 km - 200° 200° 3 kt METAR EHLW 290829Z AUTO 20003KT 7000 BR FEW230 10/09 Q1001 WHT NOSIG
10:25
I
9 °C 3,9 km - 200° 200° 4 kt METAR EHLW 290825Z AUTO 20004KT 180V250 3900 BR FEW000 SCT230 09/09 Q1001 GRN BECMG 5000 BR
10:00
L
8 °C 400 m - 190° 190° 4 kt METAR EHLW 290800Z AUTO 19004KT 190V250 0400 R23/P3000U FG OVC000 08/08 Q1001 RED BECMG 5000 BR
09:55
L
8 °C 350 m - 190° 190° 4 kt METAR EHLW 290755Z AUTO 19004KT 190V250 0350 R23/2100U FG OVC000 08/08 Q1001 RED BECMG 5000 BR
09:41
L
8 °C 250 m - 180° 180° 4 kt METAR EHLW 290741Z AUTO 18004KT 180V240 0250 R23/0550U FG OVC000 08/08 Q1001 RED BECMG 0800 FG
09:25
L
7 °C 200 m - 210° 210° 3 kt METAR EHLW 290725Z AUTO 21003KT 200V260 0200 R23/0250N FG OVC000 07/07 Q1000 RED BECMG 0800 FG
08:55
L
6 °C 200 m - 190° 190° 3 kt METAR EHLW 290655Z AUTO 19003KT 0200 R23/0175N FG OVC000 06/06 Q1000 RED BECMG 0800 FG
08:39
L
5 °C 250 m - 190° 190° 3 kt METAR EHLW 290639Z AUTO 19003KT 150V230 0250 R23/0200N FG OVC000/// 05/05 Q1000 RED BECMG 0800 FG
08:36
L
5 °C 250 m - 190° 190° 3 kt METAR EHLW 290636Z AUTO 19003KT 150V230 0250 R23/0200N FG OVC000 05/05 Q1000 RED BECMG 0800 FG
08:25
L
5 °C 250 m - 200° 200° 1 kt METAR EHLW 290625Z AUTO 20001KT 0250 R23/0125N FG OVC000/// 05/05 Q1000 RED NOSIG
08:21
L
5 °C 200 m - 190° 190° 1 kt METAR EHLW 290621Z AUTO 19001KT 0200 FG OVC000/// 05/05 Q1000 RED NOSIG
07:55
L
5 °C 250 m - 180° 180° 4 kt METAR EHLW 290555Z AUTO 18004KT 0250 FG OVC000 05/05 Q1000 RED NOSIG
07:29
L
5 °C 500 m - 190° 190° 3 kt METAR EHLW 290529Z AUTO 19003KT 0500 FG OVC000 05/05 Q1000 RED NOSIG
07:25
L
5 °C 500 m - 200° 200° 2 kt METAR EHLW 290525Z AUTO 20002KT 0500 FG OVC000 05/05 Q1000 RED
06:55
L
6 °C 600 m - Var Var 5 kt METAR EHLW 290455Z AUTO VRB05KT 0600 FG OVC000 06/06 Q0999 RED
06:35
L
5 °C 700 m 25.000 ft 180° 180° 5 kt METAR EHLW 290435Z AUTO 18005KT 150V220 0700 FG BKN000/// BKN250/// 05/05 Q0999 RED
06:34
L
5 °C 650 m 22.000 ft 180° 180° 5 kt METAR EHLW 290434Z AUTO 18005KT 150V230 0650 FG SCT000 BKN220 05/05 Q0999 RED
06:25
L
5 °C 550 m 22.000 ft 180° 180° 6 kt METAR EHLW 290425Z AUTO 18006KT 150V230 0550 FG OVC220 05/05 Q0999 RED
05:56
L
6 °C 550 m - 180° 180° 4 kt METAR EHLW 290356Z AUTO 18004KT 160V250 0550 FG FEW230/// 06/06 Q0999 RED
05:55
L
6 °C 1,1 km - 180° 180° 4 kt METAR EHLW 290355Z AUTO 18004KT 160V230 1100 BR SCT230 06/06 Q0999 AMB
05:31
L
6 °C 700 m - Var Var 2 kt METAR EHLW 290331Z AUTO VRB02KT 0700 FG NCD 06/06 Q0999 RED
05:25
L
6 °C 1 km - 180° 180° 3 kt METAR EHLW 290325Z AUTO 18003KT 1000 BR NCD 06/06 Q0999 AMB
05:09
L
6 °C 1,2 km - 180° 180° 5 kt METAR EHLW 290309Z AUTO 18005KT 150V250 1200 BR NCD 06/06 Q0999 AMB
05:03
I
6 °C 3 km - 180° 180° 5 kt METAR EHLW 290303Z AUTO 18005KT 130V250 3000 BR NCD 06/06 Q0999 YLO
04:59
I
6 °C 3,7 km - 180° 180° 5 kt METAR EHLW 290259Z AUTO 18005KT 130V210 3700 BR NCD 06/06 Q0999 GRN RMK CB INFO NOT AVBL
04:55
M
7 °C 5 km - 180° 180° 5 kt METAR EHLW 290255Z AUTO 18005KT 130V190 5000 BR NCD 07/06 Q0999 WHT RMK CB INFO NOT AVBL
04:26
M
7 °C 7 km - 180° 180° 3 kt METAR EHLW 290226Z AUTO 18003KT 130V220 7000 BR NCD 07/06 Q0999 WHT
04:25
V
6 °C 8 km - 180° 180° 4 kt METAR EHLW 290225Z AUTO 18004KT 8000 BR NCD 06/06 Q0999 BLU
04:16
M
6 °C 6 km - 180° 180° 4 kt METAR EHLW 290216Z AUTO 18004KT 130V220 6000 BR NCD 06/06 Q0999 WHT RMK CB INFO NOT AVBL
03:56
I
7 °C 2,9 km - 180° 180° 4 kt METAR EHLW 290156Z AUTO 18004KT 150V230 2900 BR NCD 07/07 Q0999 YLO RMK CB INFO NOT AVBL
03:55
L
7 °C 1,1 km - 180° 180° 3 kt METAR EHLW 290155Z AUTO 18003KT 140V210 1100 BR NCD 07/07 Q0999 AMB RMK CB INFO NOT AVBL
03:37
L
7 °C 800 m - 170° 170° 4 kt METAR EHLW 290137Z AUTO 17004KT 0800 FG NCD 07/07 Q0999 AMB
03:25
L
7 °C 500 m - 160° 160° 4 kt METAR EHLW 290125Z AUTO 16004KT 120V180 0500 FG NCD 07/07 Q0999 RED
03:04
L
7 °C 750 m - 170° 170° 5 kt METAR EHLW 290104Z AUTO 17005KT 140V200 0750 FG FEW180 07/07 Q0999 RED
02:58
I
7 °C 2,1 km - 170° 170° 5 kt METAR EHLW 290058Z AUTO 17005KT 2100 BR SCT180 07/07 Q0999 YLO
02:55
L
7 °C 1,2 km - 170° 170° 4 kt METAR EHLW 290055Z AUTO 17004KT 1200 BR FEW180 07/07 Q0999 AMB
02:44
I
7 °C 3 km 18.000 ft 160° 160° 2 kt METAR EHLW 290044Z AUTO 16002KT 3000 BR BKN180 07/07 Q0999 YLO
02:39
I
7 °C 4 km 18.000 ft 150° 150° 2 kt METAR EHLW 290039Z AUTO 15002KT 4000 BR OVC180/// 07/07 Q0999 GRN
02:31
M
7 °C 6 km 18.000 ft 160° 160° 3 kt METAR EHLW 290031Z AUTO 16003KT 6000 BR OVC180 07/07 Q0999 WHT
02:29
I
7 °C 2 km 18.000 ft 160° 160° 3 kt METAR EHLW 290029Z AUTO 16003KT 2000 BR OVC180/// 07/07 Q0999 YLO
02:25
L
7 °C 1,3 km 19.000 ft 160° 160° 3 kt METAR EHLW 290025Z AUTO 16003KT 1300 BR OVC190/// 07/07 Q0999 AMB
02:18
L
7 °C 1,4 km 19.000 ft 160° 160° 3 kt METAR EHLW 290018Z AUTO 16003KT 1400 BR OVC190/// 07/07 Q0999 AMB
02:08
I
6 °C 2,9 km - 170° 170° 2 kt METAR EHLW 290008Z AUTO 17002KT 2900 BR FEW210 06/06 Q0999 YLO
02:02
M
6 °C 6 km - 160° 160° 2 kt METAR EHLW 290002Z AUTO 16002KT 6000 BR NCD 06/06 Q0999 WHT
01:55
V
6 °C 9 km - 170° 170° 2 kt METAR EHLW 282355Z AUTO 17002KT 9000 BR NCD 06/06 Q0999 BLU RMK CB INFO NOT AVBL
01:42
I
7 °C 2,7 km - 190° 190° 3 kt METAR EHLW 282342Z AUTO 19003KT 2700 BR NCD 07/06 Q0999 YLO
01:38
V
6 °C 9 km - 180° 180° 3 kt METAR EHLW 282338Z AUTO 18003KT 9000 BR NCD 06/06 Q0999 BLU
01:33
M
6 °C 5 km - 170° 170° 2 kt METAR EHLW 282333Z AUTO 17002KT 5000 BR NCD 06/06 Q0999 WHT RMK CB INFO NOT AVBL
01:29
I
6 °C 4,3 km - 170° 170° 2 kt METAR EHLW 282329Z AUTO 17002KT 4300 BR NCD 06/06 Q0999 GRN
01:25
M
7 °C 6 km - 180° 180° 2 kt METAR EHLW 282325Z AUTO 18002KT 6000 BR NCD 07/07 Q0998 WHT
01:17
V
7 °C 8 km - 180° 180° 3 kt METAR EHLW 282317Z AUTO 18003KT 120V180 8000 BR NCD 07/07 Q0998 BLU
01:10
M
7 °C 6 km - 180° 180° 3 kt METAR EHLW 282310Z AUTO 18003KT 6000 BR NCD 07/07 Q0998 WHT
00:58
V
7 °C 8 km - 190° 190° 4 kt METAR EHLW 282258Z AUTO 19004KT 8000 BR NCD 07/07 Q0998 BLU
00:55
M
7 °C 5 km - 190° 190° 3 kt METAR EHLW 282255Z AUTO 19003KT 5000 BR NCD 07/07 Q0998 WHT RMK CB INFO NOT AVBL
00:40
I
6 °C 1,8 km - 180° 180° 2 kt METAR EHLW 282240Z AUTO 18002KT 1800 BR NCD 06/06 Q0998 YLO
00:31
M
6 °C 7 km - 180° 180° 2 kt METAR EHLW 282231Z AUTO 18002KT 7000 BR NCD 06/06 Q0998 WHT
00:25
V
7 °C 10 km+ - 190° 190° 2 kt METAR EHLW 282225Z AUTO 19002KT 9999 NCD 07/07 Q0998 BLU

28 de setembro de 2022

Hora Código Clima Temp. Visibilidade Tecto Vento METAR/SPECI
23:55
V
7 °C 10 km+ - 180° 180° 5 kt METAR EHLW 282155Z AUTO 18005KT 9999 NCD 07/07 Q0998 BLU RMK CB INFO NOT AVBL
Dados mais antigos

Nós e terceiros acompanhamos seu comportamento na internet em nosso site com cookies. Se você continuar, nós assumimos que você concorda com nossa política de cookies. Saiba mais